sensor_id;sensor_type;location;lat;lon;timestamp;P1;durP1;ratioP1;P2;durP2;ratioP2
24813;SDS011;12904;50.088;11.414;2024-02-04T00:00:34;0.80;;;0.80;;
24813;SDS011;12904;50.088;11.414;2024-02-04T00:03:00;0.63;;;0.63;;
24813;SDS011;12904;50.088;11.414;2024-02-04T00:05:25;0.60;;;0.60;;
24813;SDS011;12904;50.088;11.414;2024-02-04T00:07:51;0.82;;;0.80;;
24813;SDS011;12904;50.088;11.414;2024-02-04T00:10:16;0.80;;;0.80;;
24813;SDS011;12904;50.088;11.414;2024-02-04T00:12:43;0.70;;;0.70;;
24813;SDS011;12904;50.088;11.414;2024-02-04T00:15:09;0.70;;;0.70;;
24813;SDS011;12904;50.088;11.414;2024-02-04T00:17:35;0.95;;;0.95;;
24813;SDS011;12904;50.088;11.414;2024-02-04T00:20:01;0.80;;;0.80;;
24813;SDS011;12904;50.088;11.414;2024-02-04T00:22:30;0.80;;;0.80;;
24813;SDS011;12904;50.088;11.414;2024-02-04T00:24:56;1.13;;;0.98;;
24813;SDS011;12904;50.088;11.414;2024-02-04T00:27:26;0.80;;;0.80;;
24813;SDS011;12904;50.088;11.414;2024-02-04T00:29:52;0.98;;;0.90;;
24813;SDS011;12904;50.088;11.414;2024-02-04T00:32:18;1.08;;;0.98;;
24813;SDS011;12904;50.088;11.414;2024-02-04T00:34:43;1.20;;;1.10;;
24813;SDS011;12904;50.088;11.414;2024-02-04T00:37:09;1.80;;;0.90;;
24813;SDS011;12904;50.088;11.414;2024-02-04T00:39:35;0.98;;;0.88;;
24813;SDS011;12904;50.088;11.414;2024-02-04T00:42:00;1.00;;;0.77;;
24813;SDS011;12904;50.088;11.414;2024-02-04T00:44:26;0.95;;;0.80;;
24813;SDS011;12904;50.088;11.414;2024-02-04T00:46:52;2.25;;;0.90;;
24813;SDS011;12904;50.088;11.414;2024-02-04T00:49:17;3.88;;;0.90;;
24813;SDS011;12904;50.088;11.414;2024-02-04T00:54:37;1.23;;;1.00;;
24813;SDS011;12904;50.088;11.414;2024-02-04T00:57:03;1.00;;;0.90;;
24813;SDS011;12904;50.088;11.414;2024-02-04T00:59:28;0.82;;;0.80;;
24813;SDS011;12904;50.088;11.414;2024-02-04T01:01:59;0.90;;;0.90;;
24813;SDS011;12904;50.088;11.414;2024-02-04T01:04:51;1.15;;;0.90;;
24813;SDS011;12904;50.088;11.414;2024-02-04T01:07:17;1.02;;;0.93;;
24813;SDS011;12904;50.088;11.414;2024-02-04T01:09:42;0.85;;;0.85;;
24813;SDS011;12904;50.088;11.414;2024-02-04T01:12:08;1.30;;;0.77;;
24813;SDS011;12904;50.088;11.414;2024-02-04T01:14:36;0.60;;;0.60;;
24813;SDS011;12904;50.088;11.414;2024-02-04T01:17:02;0.75;;;0.70;;
24813;SDS011;12904;50.088;11.414;2024-02-04T01:19:28;1.35;;;0.80;;
24813;SDS011;12904;50.088;11.414;2024-02-04T01:21:53;0.63;;;0.63;;
24813;SDS011;12904;50.088;11.414;2024-02-04T01:24:19;1.33;;;1.23;;
24813;SDS011;12904;50.088;11.414;2024-02-04T01:26:45;1.23;;;0.88;;
24813;SDS011;12904;50.088;11.414;2024-02-04T01:29:10;1.27;;;1.17;;
24813;SDS011;12904;50.088;11.414;2024-02-04T01:31:36;1.27;;;1.10;;
24813;SDS011;12904;50.088;11.414;2024-02-04T01:34:02;1.23;;;1.13;;
24813;SDS011;12904;50.088;11.414;2024-02-04T01:36:27;0.85;;;0.85;;
24813;SDS011;12904;50.088;11.414;2024-02-04T01:38:53;1.10;;;1.00;;
24813;SDS011;12904;50.088;11.414;2024-02-04T01:41:19;0.90;;;0.90;;
24813;SDS011;12904;50.088;11.414;2024-02-04T01:43:44;1.25;;;1.15;;
24813;SDS011;12904;50.088;11.414;2024-02-04T01:46:11;1.42;;;0.95;;
24813;SDS011;12904;50.088;11.414;2024-02-04T01:48:36;0.90;;;0.90;;
24813;SDS011;12904;50.088;11.414;2024-02-04T01:51:02;0.80;;;0.80;;
24813;SDS011;12904;50.088;11.414;2024-02-04T01:53:29;0.90;;;0.90;;
24813;SDS011;12904;50.088;11.414;2024-02-04T01:55:57;0.80;;;0.80;;
24813;SDS011;12904;50.088;11.414;2024-02-04T01:58:24;1.10;;;1.00;;
24813;SDS011;12904;50.088;11.414;2024-02-04T02:00:50;1.10;;;1.00;;
24813;SDS011;12904;50.088;11.414;2024-02-04T02:03:16;1.10;;;1.00;;
24813;SDS011;12904;50.088;11.414;2024-02-04T02:05:41;1.08;;;0.88;;
24813;SDS011;12904;50.088;11.414;2024-02-04T02:08:08;0.90;;;0.90;;
24813;SDS011;12904;50.088;11.414;2024-02-04T02:10:35;0.90;;;0.90;;
24813;SDS011;12904;50.088;11.414;2024-02-04T02:13:04;1.38;;;0.90;;
24813;SDS011;12904;50.088;11.414;2024-02-04T02:15:36;0.63;;;0.63;;
24813;SDS011;12904;50.088;11.414;2024-02-04T02:18:18;0.60;;;0.60;;
24813;SDS011;12904;50.088;11.414;2024-02-04T02:23:40;0.50;;;0.50;;
24813;SDS011;12904;50.088;11.414;2024-02-04T02:26:18;0.70;;;0.70;;
24813;SDS011;12904;50.088;11.414;2024-02-04T02:28:45;0.50;;;0.50;;
24813;SDS011;12904;50.088;11.414;2024-02-04T02:31:10;0.88;;;0.88;;
24813;SDS011;12904;50.088;11.414;2024-02-04T02:33:36;0.90;;;0.70;;
24813;SDS011;12904;50.088;11.414;2024-02-04T02:36:02;2.10;;;0.70;;
24813;SDS011;12904;50.088;11.414;2024-02-04T02:41:35;1.52;;;0.90;;
24813;SDS011;12904;50.088;11.414;2024-02-04T02:44:03;0.77;;;0.77;;
24813;SDS011;12904;50.088;11.414;2024-02-04T02:46:30;0.85;;;0.85;;
24813;SDS011;12904;50.088;11.414;2024-02-04T02:48:56;1.30;;;1.20;;
24813;SDS011;12904;50.088;11.414;2024-02-04T02:51:23;1.20;;;1.10;;
24813;SDS011;12904;50.088;11.414;2024-02-04T02:53:48;1.65;;;1.20;;
24813;SDS011;12904;50.088;11.414;2024-02-04T02:56:14;0.90;;;0.90;;
24813;SDS011;12904;50.088;11.414;2024-02-04T02:58:40;1.02;;;0.95;;
24813;SDS011;12904;50.088;11.414;2024-02-04T03:01:05;0.90;;;0.90;;
24813;SDS011;12904;50.088;11.414;2024-02-04T03:03:31;1.17;;;1.08;;
24813;SDS011;12904;50.088;11.414;2024-02-04T03:05:56;1.48;;;1.38;;
24813;SDS011;12904;50.088;11.414;2024-02-04T03:08:22;1.02;;;0.93;;
24813;SDS011;12904;50.088;11.414;2024-02-04T03:10:47;0.95;;;0.95;;
24813;SDS011;12904;50.088;11.414;2024-02-04T03:13:13;0.90;;;0.80;;
24813;SDS011;12904;50.088;11.414;2024-02-04T03:15:39;0.70;;;0.70;;
24813;SDS011;12904;50.088;11.414;2024-02-04T03:18:06;0.70;;;0.70;;
24813;SDS011;12904;50.088;11.414;2024-02-04T03:20:32;0.90;;;0.80;;
24813;SDS011;12904;50.088;11.414;2024-02-04T03:22:57;0.70;;;0.68;;
24813;SDS011;12904;50.088;11.414;2024-02-04T03:25:23;0.75;;;0.70;;
24813;SDS011;12904;50.088;11.414;2024-02-04T03:27:51;0.70;;;0.70;;
24813;SDS011;12904;50.088;11.414;2024-02-04T03:30:18;0.80;;;0.80;;
24813;SDS011;12904;50.088;11.414;2024-02-04T03:32:43;0.80;;;0.80;;
24813;SDS011;12904;50.088;11.414;2024-02-04T03:35:09;0.90;;;0.90;;
24813;SDS011;12904;50.088;11.414;2024-02-04T03:37:34;1.02;;;0.90;;
24813;SDS011;12904;50.088;11.414;2024-02-04T03:40:00;0.80;;;0.80;;
24813;SDS011;12904;50.088;11.414;2024-02-04T03:42:26;1.02;;;0.93;;
24813;SDS011;12904;50.088;11.414;2024-02-04T03:44:51;0.93;;;0.88;;
24813;SDS011;12904;50.088;11.414;2024-02-04T03:47:17;1.08;;;1.00;;
24813;SDS011;12904;50.088;11.414;2024-02-04T03:49:43;2.13;;;1.25;;
24813;SDS011;12904;50.088;11.414;2024-02-04T03:52:08;1.65;;;1.25;;
24813;SDS011;12904;50.088;11.414;2024-02-04T03:54:34;1.30;;;1.20;;
24813;SDS011;12904;50.088;11.414;2024-02-04T03:57:00;1.40;;;1.15;;
24813;SDS011;12904;50.088;11.414;2024-02-04T03:59:25;1.20;;;1.10;;
24813;SDS011;12904;50.088;11.414;2024-02-04T04:01:51;1.40;;;1.30;;
24813;SDS011;12904;50.088;11.414;2024-02-04T04:04:18;1.73;;;1.63;;
24813;SDS011;12904;50.088;11.414;2024-02-04T04:06:44;2.05;;;1.80;;
24813;SDS011;12904;50.088;11.414;2024-02-04T04:09:10;2.20;;;1.70;;
24813;SDS011;12904;50.088;11.414;2024-02-04T04:11:36;1.88;;;1.77;;
24813;SDS011;12904;50.088;11.414;2024-02-04T04:14:02;1.90;;;1.80;;
24813;SDS011;12904;50.088;11.414;2024-02-04T04:16:27;2.40;;;2.20;;
24813;SDS011;12904;50.088;11.414;2024-02-04T04:18:53;2.45;;;2.25;;
24813;SDS011;12904;50.088;11.414;2024-02-04T04:21:19;3.92;;;2.47;;
24813;SDS011;12904;50.088;11.414;2024-02-04T04:23:45;2.60;;;2.20;;
24813;SDS011;12904;50.088;11.414;2024-02-04T04:26:11;2.33;;;2.13;;
24813;SDS011;12904;50.088;11.414;2024-02-04T04:28:36;2.50;;;2.28;;
24813;SDS011;12904;50.088;11.414;2024-02-04T04:31:02;3.90;;;3.60;;
24813;SDS011;12904;50.088;11.414;2024-02-04T04:33:28;3.00;;;2.70;;
24813;SDS011;12904;50.088;11.414;2024-02-04T04:35:54;3.15;;;2.85;;
24813;SDS011;12904;50.088;11.414;2024-02-04T04:38:20;2.75;;;2.55;;
24813;SDS011;12904;50.088;11.414;2024-02-04T04:40:46;3.45;;;3.15;;
24813;SDS011;12904;50.088;11.414;2024-02-04T04:43:12;2.78;;;2.58;;
24813;SDS011;12904;50.088;11.414;2024-02-04T04:45:38;3.22;;;2.92;;
24813;SDS011;12904;50.088;11.414;2024-02-04T04:48:03;3.38;;;3.08;;
24813;SDS011;12904;50.088;11.414;2024-02-04T04:50:29;2.72;;;2.53;;
24813;SDS011;12904;50.088;11.414;2024-02-04T04:52:55;2.63;;;2.42;;
24813;SDS011;12904;50.088;11.414;2024-02-04T04:55:21;2.95;;;2.65;;
24813;SDS011;12904;50.088;11.414;2024-02-04T04:57:46;2.83;;;2.50;;
24813;SDS011;12904;50.088;11.414;2024-02-04T05:00:12;3.75;;;2.50;;
24813;SDS011;12904;50.088;11.414;2024-02-04T05:02:42;2.65;;;2.45;;
24813;SDS011;12904;50.088;11.414;2024-02-04T05:05:10;2.92;;;2.72;;
24813;SDS011;12904;50.088;11.414;2024-02-04T05:07:36;2.45;;;2.25;;
24813;SDS011;12904;50.088;11.414;2024-02-04T05:10:01;2.28;;;1.98;;
24813;SDS011;12904;50.088;11.414;2024-02-04T05:12:27;3.40;;;2.55;;
24813;SDS011;12904;50.088;11.414;2024-02-04T05:14:52;2.50;;;2.30;;
24813;SDS011;12904;50.088;11.414;2024-02-04T05:17:18;2.58;;;2.30;;
24813;SDS011;12904;50.088;11.414;2024-02-04T05:19:44;2.22;;;2.03;;
24813;SDS011;12904;50.088;11.414;2024-02-04T05:22:09;2.15;;;1.95;;
24813;SDS011;12904;50.088;11.414;2024-02-04T05:24:35;2.17;;;1.98;;
24813;SDS011;12904;50.088;11.414;2024-02-04T05:27:01;3.35;;;1.98;;
24813;SDS011;12904;50.088;11.414;2024-02-04T05:29:26;2.60;;;2.40;;
24813;SDS011;12904;50.088;11.414;2024-02-04T05:31:52;2.47;;;2.28;;
24813;SDS011;12904;50.088;11.414;2024-02-04T05:34:17;1.90;;;1.80;;
24813;SDS011;12904;50.088;11.414;2024-02-04T05:36:43;2.10;;;1.90;;
24813;SDS011;12904;50.088;11.414;2024-02-04T05:39:12;1.58;;;1.48;;
24813;SDS011;12904;50.088;11.414;2024-02-04T05:41:39;1.95;;;1.50;;
24813;SDS011;12904;50.088;11.414;2024-02-04T05:44:05;1.42;;;1.33;;
24813;SDS011;12904;50.088;11.414;2024-02-04T05:46:33;1.40;;;1.30;;
24813;SDS011;12904;50.088;11.414;2024-02-04T05:49:03;1.73;;;1.10;;
24813;SDS011;12904;50.088;11.414;2024-02-04T05:51:29;1.20;;;1.10;;
24813;SDS011;12904;50.088;11.414;2024-02-04T05:53:56;1.70;;;1.02;;
24813;SDS011;12904;50.088;11.414;2024-02-04T05:56:21;1.00;;;0.90;;
24813;SDS011;12904;50.088;11.414;2024-02-04T05:58:47;1.17;;;0.80;;
24813;SDS011;12904;50.088;11.414;2024-02-04T06:01:12;0.70;;;0.70;;
24813;SDS011;12904;50.088;11.414;2024-02-04T06:03:39;0.80;;;0.80;;
24813;SDS011;12904;50.088;11.414;2024-02-04T06:06:07;0.75;;;0.75;;
24813;SDS011;12904;50.088;11.414;2024-02-04T06:08:32;0.63;;;0.60;;
24813;SDS011;12904;50.088;11.414;2024-02-04T06:10:58;0.65;;;0.65;;
24813;SDS011;12904;50.088;11.414;2024-02-04T06:13:23;0.70;;;0.70;;
24813;SDS011;12904;50.088;11.414;2024-02-04T06:15:49;0.60;;;0.60;;
24813;SDS011;12904;50.088;11.414;2024-02-04T06:18:14;0.50;;;0.50;;
24813;SDS011;12904;50.088;11.414;2024-02-04T06:20:40;0.57;;;0.57;;
24813;SDS011;12904;50.088;11.414;2024-02-04T06:23:06;1.00;;;0.70;;
24813;SDS011;12904;50.088;11.414;2024-02-04T06:25:31;0.82;;;0.60;;
24813;SDS011;12904;50.088;11.414;2024-02-04T06:27:57;0.60;;;0.60;;
24813;SDS011;12904;50.088;11.414;2024-02-04T06:30:22;0.70;;;0.70;;
24813;SDS011;12904;50.088;11.414;2024-02-04T06:32:48;0.73;;;0.63;;
24813;SDS011;12904;50.088;11.414;2024-02-04T06:35:14;0.68;;;0.68;;
24813;SDS011;12904;50.088;11.414;2024-02-04T06:37:41;0.70;;;0.70;;
24813;SDS011;12904;50.088;11.414;2024-02-04T06:40:08;0.60;;;0.60;;
24813;SDS011;12904;50.088;11.414;2024-02-04T06:42:35;0.60;;;0.60;;
24813;SDS011;12904;50.088;11.414;2024-02-04T06:45:00;0.70;;;0.70;;
24813;SDS011;12904;50.088;11.414;2024-02-04T06:47:26;1.20;;;0.55;;
24813;SDS011;12904;50.088;11.414;2024-02-04T06:49:51;0.52;;;0.52;;
24813;SDS011;12904;50.088;11.414;2024-02-04T06:52:17;0.55;;;0.52;;
24813;SDS011;12904;50.088;11.414;2024-02-04T06:54:43;0.60;;;0.60;;
24813;SDS011;12904;50.088;11.414;2024-02-04T06:57:09;1.08;;;0.52;;
24813;SDS011;12904;50.088;11.414;2024-02-04T06:59:35;0.77;;;0.50;;
24813;SDS011;12904;50.088;11.414;2024-02-04T07:02:00;0.52;;;0.47;;
24813;SDS011;12904;50.088;11.414;2024-02-04T07:04:26;0.40;;;0.40;;
24813;SDS011;12904;50.088;11.414;2024-02-04T07:06:52;0.30;;;0.30;;
24813;SDS011;12904;50.088;11.414;2024-02-04T07:09:17;1.00;;;0.50;;
24813;SDS011;12904;50.088;11.414;2024-02-04T07:11:43;0.40;;;0.40;;
24813;SDS011;12904;50.088;11.414;2024-02-04T07:14:09;0.43;;;0.43;;
24813;SDS011;12904;50.088;11.414;2024-02-04T07:16:35;0.50;;;0.47;;
24813;SDS011;12904;50.088;11.414;2024-02-04T07:19:00;0.50;;;0.50;;
24813;SDS011;12904;50.088;11.414;2024-02-04T07:21:26;0.45;;;0.45;;
24813;SDS011;12904;50.088;11.414;2024-02-04T07:23:52;0.30;;;0.30;;
24813;SDS011;12904;50.088;11.414;2024-02-04T07:26:17;0.35;;;0.35;;
24813;SDS011;12904;50.088;11.414;2024-02-04T07:28:43;0.35;;;0.35;;
24813;SDS011;12904;50.088;11.414;2024-02-04T07:31:08;0.40;;;0.40;;
24813;SDS011;12904;50.088;11.414;2024-02-04T07:33:35;0.40;;;0.40;;
24813;SDS011;12904;50.088;11.414;2024-02-04T07:36:01;0.35;;;0.35;;
24813;SDS011;12904;50.088;11.414;2024-02-04T07:38:27;0.73;;;0.40;;
24813;SDS011;12904;50.088;11.414;2024-02-04T07:40:53;0.28;;;0.28;;
24813;SDS011;12904;50.088;11.414;2024-02-04T07:43:20;0.40;;;0.40;;
24813;SDS011;12904;50.088;11.414;2024-02-04T07:45:50;0.30;;;0.30;;
24813;SDS011;12904;50.088;11.414;2024-02-04T07:48:16;0.25;;;0.25;;
24813;SDS011;12904;50.088;11.414;2024-02-04T07:50:42;0.35;;;0.35;;
24813;SDS011;12904;50.088;11.414;2024-02-04T07:53:08;0.40;;;0.35;;
24813;SDS011;12904;50.088;11.414;2024-02-04T07:55:34;0.40;;;0.40;;
24813;SDS011;12904;50.088;11.414;2024-02-04T07:57:59;0.40;;;0.40;;
24813;SDS011;12904;50.088;11.414;2024-02-04T08:00:25;0.40;;;0.40;;
24813;SDS011;12904;50.088;11.414;2024-02-04T08:02:50;0.40;;;0.30;;
24813;SDS011;12904;50.088;11.414;2024-02-04T08:05:16;0.35;;;0.35;;
24813;SDS011;12904;50.088;11.414;2024-02-04T08:07:42;0.30;;;0.30;;
24813;SDS011;12904;50.088;11.414;2024-02-04T08:10:08;0.30;;;0.30;;
24813;SDS011;12904;50.088;11.414;2024-02-04T08:12:33;0.30;;;0.30;;
24813;SDS011;12904;50.088;11.414;2024-02-04T08:14:59;0.30;;;0.30;;
24813;SDS011;12904;50.088;11.414;2024-02-04T08:17:25;0.20;;;0.20;;
24813;SDS011;12904;50.088;11.414;2024-02-04T08:19:53;0.40;;;0.40;;
24813;SDS011;12904;50.088;11.414;2024-02-04T08:22:19;0.20;;;0.20;;
24813;SDS011;12904;50.088;11.414;2024-02-04T08:24:44;0.35;;;0.32;;
24813;SDS011;12904;50.088;11.414;2024-02-04T08:27:10;0.30;;;0.30;;
24813;SDS011;12904;50.088;11.414;2024-02-04T08:29:36;0.30;;;0.30;;
24813;SDS011;12904;50.088;11.414;2024-02-04T08:32:01;0.30;;;0.30;;
24813;SDS011;12904;50.088;11.414;2024-02-04T08:34:27;0.40;;;0.38;;
24813;SDS011;12904;50.088;11.414;2024-02-04T08:36:53;0.30;;;0.30;;
24813;SDS011;12904;50.088;11.414;2024-02-04T08:39:18;0.20;;;0.20;;
24813;SDS011;12904;50.088;11.414;2024-02-04T08:41:44;0.45;;;0.30;;
24813;SDS011;12904;50.088;11.414;2024-02-04T08:44:10;0.40;;;0.40;;
24813;SDS011;12904;50.088;11.414;2024-02-04T08:46:35;0.30;;;0.30;;
24813;SDS011;12904;50.088;11.414;2024-02-04T08:49:01;0.50;;;0.40;;
24813;SDS011;12904;50.088;11.414;2024-02-04T08:51:26;0.52;;;0.50;;
24813;SDS011;12904;50.088;11.414;2024-02-04T08:53:52;0.38;;;0.38;;
24813;SDS011;12904;50.088;11.414;2024-02-04T08:56:18;0.40;;;0.40;;
24813;SDS011;12904;50.088;11.414;2024-02-04T08:58:44;0.55;;;0.55;;
24813;SDS011;12904;50.088;11.414;2024-02-04T09:01:11;0.65;;;0.63;;
24813;SDS011;12904;50.088;11.414;2024-02-04T09:03:36;0.60;;;0.60;;
24813;SDS011;12904;50.088;11.414;2024-02-04T09:06:02;0.70;;;0.60;;
24813;SDS011;12904;50.088;11.414;2024-02-04T09:08:28;0.50;;;0.50;;
24813;SDS011;12904;50.088;11.414;2024-02-04T09:10:54;0.60;;;0.60;;
24813;SDS011;12904;50.088;11.414;2024-02-04T09:13:19;0.38;;;0.38;;
24813;SDS011;12904;50.088;11.414;2024-02-04T09:15:58;0.40;;;0.40;;
24813;SDS011;12904;50.088;11.414;2024-02-04T09:18:23;0.50;;;0.40;;
24813;SDS011;12904;50.088;11.414;2024-02-04T09:20:49;0.40;;;0.40;;
24813;SDS011;12904;50.088;11.414;2024-02-04T09:23:14;0.30;;;0.30;;
24813;SDS011;12904;50.088;11.414;2024-02-04T09:25:40;0.30;;;0.30;;
24813;SDS011;12904;50.088;11.414;2024-02-04T09:28:06;0.30;;;0.30;;
24813;SDS011;12904;50.088;11.414;2024-02-04T09:30:34;0.40;;;0.40;;
24813;SDS011;12904;50.088;11.414;2024-02-04T09:33:00;0.30;;;0.30;;
24813;SDS011;12904;50.088;11.414;2024-02-04T09:35:26;0.30;;;0.30;;
24813;SDS011;12904;50.088;11.414;2024-02-04T09:37:51;0.30;;;0.30;;
24813;SDS011;12904;50.088;11.414;2024-02-04T09:40:17;0.30;;;0.30;;
24813;SDS011;12904;50.088;11.414;2024-02-04T09:42:42;0.30;;;0.30;;
24813;SDS011;12904;50.088;11.414;2024-02-04T09:45:09;0.40;;;0.40;;
24813;SDS011;12904;50.088;11.414;2024-02-04T09:47:36;3.70;;;0.73;;
24813;SDS011;12904;50.088;11.414;2024-02-04T09:50:04;0.35;;;0.35;;
24813;SDS011;12904;50.088;11.414;2024-02-04T09:52:30;0.30;;;0.30;;
24813;SDS011;12904;50.088;11.414;2024-02-04T09:55:01;0.30;;;0.30;;
24813;SDS011;12904;50.088;11.414;2024-02-04T09:57:29;0.68;;;0.47;;
24813;SDS011;12904;50.088;11.414;2024-02-04T09:59:55;0.40;;;0.40;;
24813;SDS011;12904;50.088;11.414;2024-02-04T10:02:21;0.47;;;0.40;;
24813;SDS011;12904;50.088;11.414;2024-02-04T10:04:48;0.30;;;0.30;;
24813;SDS011;12904;50.088;11.414;2024-02-04T10:07:14;0.20;;;0.20;;
24813;SDS011;12904;50.088;11.414;2024-02-04T10:09:41;0.47;;;0.38;;
24813;SDS011;12904;50.088;11.414;2024-02-04T10:12:08;0.20;;;0.20;;
24813;SDS011;12904;50.088;11.414;2024-02-04T10:14:34;0.20;;;0.20;;
24813;SDS011;12904;50.088;11.414;2024-02-04T10:17:00;0.20;;;0.20;;
24813;SDS011;12904;50.088;11.414;2024-02-04T10:19:26;0.20;;;0.20;;
24813;SDS011;12904;50.088;11.414;2024-02-04T10:22:01;0.25;;;0.25;;
24813;SDS011;12904;50.088;11.414;2024-02-04T10:24:28;0.40;;;0.20;;
24813;SDS011;12904;50.088;11.414;2024-02-04T10:26:54;0.20;;;0.20;;
24813;SDS011;12904;50.088;11.414;2024-02-04T10:29:24;0.22;;;0.22;;
24813;SDS011;12904;50.088;11.414;2024-02-04T10:31:53;0.30;;;0.30;;
24813;SDS011;12904;50.088;11.414;2024-02-04T10:34:28;0.30;;;0.30;;
24813;SDS011;12904;50.088;11.414;2024-02-04T10:36:55;0.30;;;0.30;;
24813;SDS011;12904;50.088;11.414;2024-02-04T10:39:22;0.30;;;0.30;;
24813;SDS011;12904;50.088;11.414;2024-02-04T10:41:51;0.20;;;0.20;;
24813;SDS011;12904;50.088;11.414;2024-02-04T10:44:21;0.30;;;0.30;;
24813;SDS011;12904;50.088;11.414;2024-02-04T10:46:49;0.30;;;0.30;;
24813;SDS011;12904;50.088;11.414;2024-02-04T10:49:15;0.30;;;0.30;;
24813;SDS011;12904;50.088;11.414;2024-02-04T10:51:44;0.30;;;0.30;;
24813;SDS011;12904;50.088;11.414;2024-02-04T10:54:11;0.57;;;0.57;;
24813;SDS011;12904;50.088;11.414;2024-02-04T10:56:44;0.85;;;0.25;;
24813;SDS011;12904;50.088;11.414;2024-02-04T10:59:17;0.30;;;0.30;;
24813;SDS011;12904;50.088;11.414;2024-02-04T11:01:45;0.30;;;0.30;;
24813;SDS011;12904;50.088;11.414;2024-02-04T11:04:13;0.30;;;0.30;;
24813;SDS011;12904;50.088;11.414;2024-02-04T11:06:40;0.40;;;0.40;;
24813;SDS011;12904;50.088;11.414;2024-02-04T11:09:08;0.40;;;0.40;;
24813;SDS011;12904;50.088;11.414;2024-02-04T11:11:37;0.30;;;0.30;;
24813;SDS011;12904;50.088;11.414;2024-02-04T11:14:05;0.20;;;0.20;;
24813;SDS011;12904;50.088;11.414;2024-02-04T11:27:45;0.40;;;0.40;;
24813;SDS011;12904;50.088;11.414;2024-02-04T11:30:11;0.40;;;0.40;;
24813;SDS011;12904;50.088;11.414;2024-02-04T11:32:37;0.30;;;0.30;;
24813;SDS011;12904;50.088;11.414;2024-02-04T11:35:04;0.40;;;0.40;;
24813;SDS011;12904;50.088;11.414;2024-02-04T11:37:32;0.50;;;0.50;;
24813;SDS011;12904;50.088;11.414;2024-02-04T11:39:59;0.40;;;0.40;;
24813;SDS011;12904;50.088;11.414;2024-02-04T11:42:24;0.40;;;0.40;;
24813;SDS011;12904;50.088;11.414;2024-02-04T11:45:12;0.50;;;0.50;;
24813;SDS011;12904;50.088;11.414;2024-02-04T11:47:39;0.30;;;0.30;;
24813;SDS011;12904;50.088;11.414;2024-02-04T11:50:05;0.40;;;0.40;;
24813;SDS011;12904;50.088;11.414;2024-02-04T11:52:32;0.50;;;0.50;;
24813;SDS011;12904;50.088;11.414;2024-02-04T11:54:58;0.70;;;0.40;;
24813;SDS011;12904;50.088;11.414;2024-02-04T11:57:24;0.40;;;0.40;;
24813;SDS011;12904;50.088;11.414;2024-02-04T11:59:50;0.30;;;0.30;;
24813;SDS011;12904;50.088;11.414;2024-02-04T12:02:18;0.32;;;0.32;;
24813;SDS011;12904;50.088;11.414;2024-02-04T12:04:44;0.40;;;0.40;;
24813;SDS011;12904;50.088;11.414;2024-02-04T12:07:11;0.40;;;0.40;;
24813;SDS011;12904;50.088;11.414;2024-02-04T12:09:38;0.32;;;0.32;;
24813;SDS011;12904;50.088;11.414;2024-02-04T12:12:04;0.40;;;0.30;;
24813;SDS011;12904;50.088;11.414;2024-02-04T12:14:30;0.40;;;0.40;;
24813;SDS011;12904;50.088;11.414;2024-02-04T12:16:56;0.30;;;0.30;;
24813;SDS011;12904;50.088;11.414;2024-02-04T12:19:22;0.35;;;0.35;;
24813;SDS011;12904;50.088;11.414;2024-02-04T12:21:48;0.73;;;0.30;;
24813;SDS011;12904;50.088;11.414;2024-02-04T12:24:14;0.30;;;0.30;;
24813;SDS011;12904;50.088;11.414;2024-02-04T12:26:40;3.63;;;0.40;;
24813;SDS011;12904;50.088;11.414;2024-02-04T12:29:06;0.28;;;0.28;;
24813;SDS011;12904;50.088;11.414;2024-02-04T12:31:32;0.35;;;0.30;;
24813;SDS011;12904;50.088;11.414;2024-02-04T12:33:58;0.30;;;0.30;;
24813;SDS011;12904;50.088;11.414;2024-02-04T12:36:26;0.30;;;0.30;;
24813;SDS011;12904;50.088;11.414;2024-02-04T12:38:53;0.35;;;0.35;;
24813;SDS011;12904;50.088;11.414;2024-02-04T12:41:23;0.47;;;0.47;;
24813;SDS011;12904;50.088;11.414;2024-02-04T12:43:53;0.60;;;0.50;;
24813;SDS011;12904;50.088;11.414;2024-02-04T12:46:20;0.40;;;0.40;;
24813;SDS011;12904;50.088;11.414;2024-02-04T12:48:50;0.40;;;0.40;;
24813;SDS011;12904;50.088;11.414;2024-02-04T12:53:51;0.30;;;0.30;;
24813;SDS011;12904;50.088;11.414;2024-02-04T12:56:27;0.30;;;0.30;;
24813;SDS011;12904;50.088;11.414;2024-02-04T12:58:53;0.50;;;0.50;;
24813;SDS011;12904;50.088;11.414;2024-02-04T13:01:21;0.95;;;0.40;;
24813;SDS011;12904;50.088;11.414;2024-02-04T13:03:47;1.08;;;0.38;;
24813;SDS011;12904;50.088;11.414;2024-02-04T13:06:15;0.50;;;0.50;;
24813;SDS011;12904;50.088;11.414;2024-02-04T13:08:40;0.50;;;0.50;;
24813;SDS011;12904;50.088;11.414;2024-02-04T13:11:06;0.40;;;0.40;;
24813;SDS011;12904;50.088;11.414;2024-02-04T13:13:32;0.40;;;0.40;;
24813;SDS011;12904;50.088;11.414;2024-02-04T13:15:57;0.40;;;0.40;;
24813;SDS011;12904;50.088;11.414;2024-02-04T13:18:23;0.70;;;0.60;;
24813;SDS011;12904;50.088;11.414;2024-02-04T13:20:48;0.60;;;0.60;;
24813;SDS011;12904;50.088;11.414;2024-02-04T13:23:14;0.60;;;0.60;;
24813;SDS011;12904;50.088;11.414;2024-02-04T13:25:40;0.60;;;0.60;;
24813;SDS011;12904;50.088;11.414;2024-02-04T13:28:05;0.80;;;0.68;;
24813;SDS011;12904;50.088;11.414;2024-02-04T13:30:31;0.80;;;0.60;;
24813;SDS011;12904;50.088;11.414;2024-02-04T13:32:57;0.40;;;0.40;;
24813;SDS011;12904;50.088;11.414;2024-02-04T13:35:23;0.47;;;0.47;;
24813;SDS011;12904;50.088;11.414;2024-02-04T13:37:49;0.50;;;0.50;;
24813;SDS011;12904;50.088;11.414;2024-02-04T13:40:17;0.55;;;0.55;;
24813;SDS011;12904;50.088;11.414;2024-02-04T13:42:44;0.60;;;0.60;;
24813;SDS011;12904;50.088;11.414;2024-02-04T13:45:10;0.85;;;0.70;;
24813;SDS011;12904;50.088;11.414;2024-02-04T13:47:40;0.68;;;0.65;;
24813;SDS011;12904;50.088;11.414;2024-02-04T13:50:06;0.50;;;0.50;;
24813;SDS011;12904;50.088;11.414;2024-02-04T13:52:35;1.38;;;0.73;;
24813;SDS011;12904;50.088;11.414;2024-02-04T13:55:01;0.50;;;0.50;;
24813;SDS011;12904;50.088;11.414;2024-02-04T13:57:30;0.50;;;0.50;;
24813;SDS011;12904;50.088;11.414;2024-02-04T13:59:58;0.40;;;0.40;;
24813;SDS011;12904;50.088;11.414;2024-02-04T14:02:24;0.47;;;0.47;;
24813;SDS011;12904;50.088;11.414;2024-02-04T14:04:51;0.38;;;0.38;;
24813;SDS011;12904;50.088;11.414;2024-02-04T14:07:17;0.50;;;0.40;;
24813;SDS011;12904;50.088;11.414;2024-02-04T14:09:43;0.40;;;0.40;;
24813;SDS011;12904;50.088;11.414;2024-02-04T14:12:09;0.50;;;0.50;;
24813;SDS011;12904;50.088;11.414;2024-02-04T14:14:36;0.50;;;0.50;;
24813;SDS011;12904;50.088;11.414;2024-02-04T14:17:02;2.65;;;0.40;;
24813;SDS011;12904;50.088;11.414;2024-02-04T14:19:28;0.40;;;0.40;;
24813;SDS011;12904;50.088;11.414;2024-02-04T14:21:54;0.88;;;0.50;;
24813;SDS011;12904;50.088;11.414;2024-02-04T14:24:19;0.57;;;0.52;;
24813;SDS011;12904;50.088;11.414;2024-02-04T14:26:45;0.40;;;0.40;;
24813;SDS011;12904;50.088;11.414;2024-02-04T14:29:11;0.57;;;0.57;;
24813;SDS011;12904;50.088;11.414;2024-02-04T14:31:36;0.77;;;0.70;;
24813;SDS011;12904;50.088;11.414;2024-02-04T14:34:02;0.50;;;0.50;;
24813;SDS011;12904;50.088;11.414;2024-02-04T14:36:28;0.60;;;0.60;;
24813;SDS011;12904;50.088;11.414;2024-02-04T14:38:54;0.60;;;0.60;;
24813;SDS011;12904;50.088;11.414;2024-02-04T14:41:19;0.50;;;0.50;;
24813;SDS011;12904;50.088;11.414;2024-02-04T14:43:45;0.60;;;0.60;;
24813;SDS011;12904;50.088;11.414;2024-02-04T14:46:11;1.00;;;0.70;;
24813;SDS011;12904;50.088;11.414;2024-02-04T14:48:36;0.60;;;0.60;;
24813;SDS011;12904;50.088;11.414;2024-02-04T14:51:02;0.50;;;0.50;;